Ama, Louisiana
Current Conditions -  °F | °C
As of 12:08 PM on Friday 19 Dec 2014 (Local Time) from KMSY Reporting Station
Light Rain Light Rain  
Wind Chill: 54°   Ceiling: 2000
Heat Index: 54°   Visibility: 4mi
Dew Point: 51°   Wind: 8mph
Humidity: 90%   Direction: 100°E
Pressure: 30.09"   Gusts: NA
Location:  29.95°N, 90.3°W
Report Text: KMSY 191808Z 10007KT 4SM -RA BR SCT007 BKN020 OVC033 12/11 A3009 RMK AO2 SCT V BKN P0003 T01220106
Loading
Personal Weather Stations






























Interactive Weather Map New forecast layout! Learn more

10-Day Weather Forecast

Advertisements
Track Severe Weather on mobile